Time;durP1;ratioP1;P1;durP2;ratioP2;P2;SDS_P1;SDS_P2;PMS_P1;PMS_P2;Temp;Humidity;BMP_temperature;BMP_pressure;BME280_temperature;BME280_humidity;BME280_pressure;Samples;Min_cycle;Max_cycle;Signal;HPM_P1;HPM_P2
2023/10/15 00:01:29;;;;;;;12.75;5.10;;;;;;;24.54;54.78;96371.72;5095556;28;20016;-27
2023/10/15 00:03:54;;;;;;;11.85;6.45;;;;;;;24.64;54.72;96374.88;5097125;28;20016;-26
2023/10/15 00:06:20;;;;;;;11.82;5.10;;;;;;;24.62;54.62;96374.66;5097267;28;20449;-26
2023/10/15 00:08:45;;;;;;;8.57;6.03;;;;;;;24.70;54.11;96381.88;5103595;28;20391;-26
2023/10/15 00:11:12;;;;;;;14.50;6.18;;;;;;;24.67;53.99;96380.13;5098225;28;20030;-26
2023/10/15 00:13:38;;;;;;;6.90;4.85;;;;;;;24.73;53.96;96384.88;5096379;28;20024;-26
2023/10/15 00:16:04;;;;;;;10.27;4.93;;;;;;;24.67;53.68;96377.38;5096848;28;20467;-26
2023/10/15 00:18:29;;;;;;;10.02;4.68;;;;;;;24.75;53.42;96377.53;5096695;28;20475;-26
2023/10/15 00:20:56;;;;;;;8.77;4.72;;;;;;;24.85;53.04;96373.09;5096329;28;20027;-26
2023/10/15 00:23:24;;;;;;;8.10;4.30;;;;;;;24.76;52.87;96367.94;5104278;28;20112;-26
2023/10/15 00:25:49;;;;;;;10.05;4.28;;;;;;;24.75;52.86;96368.44;5096612;28;20024;-26
2023/10/15 00:28:15;;;;;;;11.18;4.90;;;;;;;24.61;53.08;96367.59;5096499;28;20046;-26
2023/10/15 00:30:42;;;;;;;9.05;4.43;;;;;;;24.46;53.65;96361.75;5096446;28;20068;-27
2023/10/15 00:33:11;;;;;;;10.65;4.68;;;;;;;24.60;53.31;96361.28;5096525;28;20488;-26
2023/10/15 00:35:36;;;;;;;9.07;4.43;;;;;;;24.53;53.30;96361.91;5096611;28;20153;-26
2023/10/15 00:38:11;;;;;;;9.52;4.40;;;;;;;24.79;52.62;96361.34;5095276;28;20457;-26
2023/10/15 00:40:41;;;;;;;11.18;4.47;;;;;;;24.72;53.16;96367.50;5096785;28;20024;-27
2023/10/15 00:43:06;;;;;;;9.63;4.25;;;;;;;24.71;53.10;96363.22;5096025;28;20032;-26
2023/10/15 00:45:43;;;;;;;11.00;4.15;;;;;;;24.72;53.29;96369.50;5096597;28;20176;-26
2023/10/15 00:48:12;;;;;;;8.35;4.00;;;;;;;24.57;53.79;96356.81;5096309;28;20020;-26
2023/10/15 00:50:40;;;;;;;10.27;4.20;;;;;;;24.73;53.35;96348.84;5096249;28;20031;-27
2023/10/15 00:53:27;;;;;;;8.73;4.50;;;;;;;24.84;53.07;96354.25;5096673;28;20040;-26
2023/10/15 00:56:03;;;;;;;7.35;4.70;;;;;;;24.82;53.16;96354.00;5096043;28;20436;-26
2023/10/15 01:01:19;;;;;;;10.02;4.93;;;;;;;25.03;52.63;96344.66;5095681;28;20023;-26
2023/10/15 01:03:50;;;;;;;12.73;5.38;;;;;;;24.92;53.12;96341.25;5095790;28;20016;-26
2023/10/15 01:06:29;;;;;;;9.93;4.90;;;;;;;24.76;53.38;96339.44;5095602;28;20016;-27
2023/10/15 01:08:59;;;;;;;8.88;3.90;;;;;;;24.61;53.89;96335.06;5096354;28;20023;-26
2023/10/15 01:11:28;;;;;;;8.95;4.68;;;;;;;24.79;53.31;96330.09;5096250;28;20020;-26
2023/10/15 01:13:55;;;;;;;10.57;4.00;;;;;;;24.92;52.93;96330.16;5095429;28;20024;-26
2023/10/15 01:16:22;;;;;;;11.15;4.60;;;;;;;24.90;52.99;96321.63;5095899;28;20027;-26
2023/10/15 01:18:55;;;;;;;11.73;4.18;;;;;;;24.94;52.93;96311.00;5095524;28;20028;-27
2023/10/15 01:21:26;;;;;;;11.30;4.35;;;;;;;24.91;53.01;96312.78;5095629;28;20055;-26
2023/10/15 01:24:04;;;;;;;11.00;4.50;;;;;;;24.83;53.44;96311.13;5095572;28;20442;-26
2023/10/15 01:26:36;;;;;;;11.50;4.80;;;;;;;24.92;53.20;96308.72;5097351;28;20032;-26
2023/10/15 01:29:05;;;;;;;12.10;4.65;;;;;;;24.84;53.53;96307.09;5099503;28;20016;-27
2023/10/15 01:31:39;;;;;;;9.35;4.38;;;;;;;24.96;53.26;96302.91;5103028;28;20463;-26
2023/10/15 01:34:08;;;;;;;9.88;5.10;;;;;;;24.94;53.16;96297.13;5094947;28;20028;-26
2023/10/15 01:36:38;;;;;;;11.40;4.70;;;;;;;25.04;52.83;96298.25;5095025;28;20019;-26
2023/10/15 01:39:12;;;;;;;10.07;4.72;;;;;;;24.94;53.34;96294.38;5095262;28;20370;-27
2023/10/15 01:41:42;;;;;;;11.75;4.35;;;;;;;24.90;53.14;96285.56;5102405;28;20015;-27
2023/10/15 01:44:07;;;;;;;10.30;4.50;;;;;;;24.87;53.48;96281.06;5095219;28;20102;-26
2023/10/15 01:46:55;;;;;;;9.57;4.60;;;;;;;24.82;53.73;96273.56;5095433;28;20104;-26
2023/10/15 01:49:34;;;;;;;11.20;4.68;;;;;;;24.72;53.91;96270.44;5099399;28;20019;-27
2023/10/15 01:52:09;;;;;;;8.80;4.28;;;;;;;24.48;54.66;96262.91;5102628;28;20044;-26
2023/10/15 01:54:44;;;;;;;9.02;4.47;;;;;;;24.62;54.36;96270.03;5095157;28;20558;-28
2023/10/15 01:57:14;;;;;;;7.07;4.30;;;;;;;24.74;54.23;96269.88;5101495;28;20101;-26
2023/10/15 01:59:46;;;;;;;8.82;4.65;;;;;;;24.81;53.89;96269.28;5094609;28;20485;-26
2023/10/15 02:02:18;;;;;;;10.25;4.80;;;;;;;24.78;54.03;96259.25;5094784;28;20024;-26
2023/10/15 02:04:46;;;;;;;9.65;4.90;;;;;;;24.88;53.58;96258.34;5094902;28;20012;-27
2023/10/15 02:07:16;;;;;;;9.82;4.95;;;;;;;24.68;54.44;96256.84;5094891;28;20047;-27
2023/10/15 02:09:43;;;;;;;9.93;5.82;;;;;;;24.63;55.00;96251.38;5093373;28;20070;-28
2023/10/15 02:12:11;;;;;;;7.55;5.75;;;;;;;24.56;55.38;96252.72;5094641;28;20028;-26
2023/10/15 02:14:36;;;;;;;8.23;5.72;;;;;;;24.68;55.52;96250.56;5094287;28;20024;-27
2023/10/15 02:17:06;;;;;;;11.88;6.55;;;;;;;24.64;55.68;96250.09;5094772;28;20026;-27
2023/10/15 02:22:00;;;;;;;8.85;5.78;;;;;;;24.57;56.03;96240.38;5094365;28;20055;-26
2023/10/15 02:24:31;;;;;;;9.30;6.90;;;;;;;24.80;55.51;96243.59;5094121;28;20455;-27
2023/10/15 02:26:57;;;;;;;7.97;6.18;;;;;;;24.72;55.93;96253.78;5094449;28;20020;-26
2023/10/15 02:29:28;;;;;;;13.48;6.57;;;;;;;24.76;55.77;96245.91;5093387;28;20020;-27
2023/10/15 02:31:54;;;;;;;8.05;6.40;;;;;;;24.71;56.44;96255.06;5094522;28;20028;-26
2023/10/15 02:34:24;;;;;;;9.75;7.43;;;;;;;24.73;56.23;96251.78;5093962;28;20027;-26
2023/10/15 02:36:50;;;;;;;12.23;8.45;;;;;;;24.55;56.62;96251.22;5094117;28;20031;-26
2023/10/15 02:39:15;;;;;;;9.88;7.57;;;;;;;24.51;56.98;96248.00;5093803;28;20028;-26
2023/10/15 02:41:41;;;;;;;9.52;7.05;;;;;;;24.51;57.00;96245.22;5094005;28;20032;-26
2023/10/15 02:44:13;;;;;;;13.93;7.93;;;;;;;24.43;57.61;96241.56;5093990;28;20061;-27
2023/10/15 02:46:47;;;;;;;11.68;8.18;;;;;;;24.43;57.41;96252.66;5101452;28;20024;-27
2023/10/15 02:49:15;;;;;;;13.43;8.55;;;;;;;24.49;57.51;96241.47;5101632;28;20157;-28
2023/10/15 02:51:42;;;;;;;10.95;7.80;;;;;;;24.36;57.72;96244.91;5094141;28;20044;-26
2023/10/15 02:54:27;;;;;;;10.68;7.82;;;;;;;24.46;57.58;96229.44;5094186;28;20024;-27
2023/10/15 02:56:59;;;;;;;9.85;8.27;;;;;;;24.32;58.00;96230.63;5093962;28;20103;-26
2023/10/15 02:59:29;;;;;;;12.20;8.48;;;;;;;24.37;57.85;96221.47;5093724;28;20085;-27
2023/10/15 03:01:56;;;;;;;10.13;8.13;;;;;;;24.46;57.50;96223.88;5094275;28;20028;-26
2023/10/15 03:04:37;;;;;;;10.32;8.55;;;;;;;24.35;57.92;96215.72;5093639;28;20016;-26
2023/10/15 03:07:29;;;;;;;12.20;9.18;;;;;;;24.34;58.14;96201.09;5093623;28;20485;-26
2023/10/15 03:09:57;;;;;;;10.10;8.35;;;;;;;24.38;58.06;96216.66;5093553;28;20484;-26
2023/10/15 03:12:33;;;;;;;10.18;8.63;;;;;;;24.44;57.39;96214.59;5093362;28;20024;-26
2023/10/15 03:15:00;;;;;;;10.57;7.50;;;;;;;24.49;57.27;96211.72;5093775;28;20024;-27
2023/10/15 03:17:29;;;;;;;9.98;8.30;;;;;;;24.43;57.45;96208.28;5093837;28;20024;-27
2023/10/15 03:19:55;;;;;;;9.93;8.15;;;;;;;24.36;57.47;96210.91;5093548;28;20107;-26
2023/10/15 03:22:24;;;;;;;11.63;8.15;;;;;;;24.46;57.54;96212.03;5097537;28;20463;-27
2023/10/15 03:24:56;;;;;;;11.13;8.27;;;;;;;24.40;57.52;96206.56;5097580;28;20089;-26
2023/10/15 03:27:27;;;;;;;9.27;7.72;;;;;;;24.32;58.04;96208.44;5097882;28;20532;-26
2023/10/15 03:29:58;;;;;;;9.82;6.95;;;;;;;24.50;57.28;96201.38;5097501;28;20581;-26
2023/10/15 03:32:31;;;;;;;9.40;6.85;;;;;;;24.62;56.72;96209.03;5097756;28;20421;-26
2023/10/15 03:35:05;;;;;;;10.75;7.55;;;;;;;24.62;56.64;96208.28;5098166;28;20051;-26
2023/10/15 03:37:31;;;;;;;11.07;7.38;;;;;;;24.51;57.14;96200.88;5097713;28;20028;-26
2023/10/15 03:39:57;;;;;;;11.27;7.60;;;;;;;24.41;57.23;96205.28;5097604;28;20455;-26
2023/10/15 03:42:26;;;;;;;13.52;7.97;;;;;;;24.47;56.94;96210.78;5096977;28;20020;-26
2023/10/15 03:44:59;;;;;;;10.73;7.72;;;;;;;24.36;57.72;96208.16;5104879;28;20024;-28
2023/10/15 03:47:25;;;;;;;10.20;8.18;;;;;;;24.37;57.67;96196.53;5097357;28;20027;-26
2023/10/15 03:49:51;;;;;;;9.63;7.47;;;;;;;24.39;57.55;96205.06;5097299;28;20114;-26
2023/10/15 03:52:22;;;;;;;10.13;7.65;;;;;;;24.54;57.03;96201.84;5095736;28;20079;-27
2023/10/15 03:54:49;;;;;;;9.48;7.90;;;;;;;24.50;57.21;96207.69;5104269;28;20517;-27
2023/10/15 03:57:18;;;;;;;11.48;8.05;;;;;;;24.59;56.79;96207.31;5097419;28;20020;-26
2023/10/15 03:59:53;;;;;;;9.40;7.85;;;;;;;24.63;56.82;96202.22;5096935;28;20016;-26
2023/10/15 04:02:25;;;;;;;9.73;7.65;;;;;;;24.57;57.25;96204.31;5103863;28;20027;-26
2023/10/15 04:05:00;;;;;;;8.43;7.43;;;;;;;24.44;57.35;96197.97;5095533;28;20517;-26
2023/10/15 04:07:30;;;;;;;8.98;7.30;;;;;;;24.43;57.09;96202.75;5097350;28;20486;-26
2023/10/15 04:09:57;;;;;;;9.68;7.20;;;;;;;24.34;57.43;96203.13;5097556;28;20349;-27
2023/10/15 04:12:27;;;;;;;10.77;7.13;;;;;;;24.56;56.81;96202.81;5103934;28;20023;-26
2023/10/15 04:14:53;;;;;;;10.13;6.70;;;;;;;24.59;56.73;96199.00;5096986;28;20115;-26
2023/10/15 04:17:20;;;;;;;8.57;6.43;;;;;;;24.65;56.12;96196.16;5096734;28;20033;-27
2023/10/15 04:19:46;;;;;;;9.55;6.50;;;;;;;24.62;56.23;96191.66;5096649;28;20030;-27
2023/10/15 04:22:14;;;;;;;9.25;5.75;;;;;;;24.53;56.34;96186.47;5096930;28;20016;-26
2023/10/15 04:24:46;;;;;;;8.10;5.70;;;;;;;24.69;55.82;96180.72;5096458;28;20012;-26
2023/10/15 04:27:15;;;;;;;9.07;5.30;;;;;;;24.57;55.92;96176.59;5096801;28;20020;-25
2023/10/15 04:29:52;;;;;;;8.82;5.60;;;;;;;24.47;56.25;96175.50;5096374;28;20059;-27
2023/10/15 04:33:08;;;;;;;10.05;5.97;;;;;;;24.52;55.86;96174.66;5095273;28;20020;-26
2023/10/15 04:35:08;;;;;;;8.73;6.13;;;;;;;24.51;55.99;96180.72;5092447;28;20071;-27
2023/10/15 04:37:36;;;;;;;8.88;5.10;;;;;;;24.47;56.19;96177.50;5096420;28;20020;-27
2023/10/15 04:40:04;;;;;;;10.43;6.30;;;;;;;24.53;55.77;96178.16;5096424;28;20107;-26
2023/10/15 04:42:37;;;;;;;9.38;6.57;;;;;;;24.31;56.35;96176.47;5103758;28;20018;-26
2023/10/15 04:45:12;;;;;;;12.98;6.20;;;;;;;24.42;56.26;96173.53;5096370;28;20020;-26
2023/10/15 04:47:41;;;;;;;11.27;5.88;;;;;;;24.43;56.03;96182.59;5096227;28;20047;-26
2023/10/15 04:50:16;;;;;;;9.23;5.80;;;;;;;24.53;55.81;96178.91;5096188;28;20020;-26
2023/10/15 04:52:42;;;;;;;10.88;5.85;;;;;;;24.47;55.91;96183.81;5096444;28;20467;-26
2023/10/15 04:55:08;;;;;;;10.20;5.65;;;;;;;24.40;55.84;96176.06;5096252;28;20031;-27
2023/10/15 04:57:34;;;;;;;10.95;5.50;;;;;;;24.56;55.46;96188.22;5095742;28;20024;-27
2023/10/15 04:59:59;;;;;;;8.93;6.00;;;;;;;24.63;55.11;96182.06;5103254;28;20042;-27
2023/10/15 05:02:25;;;;;;;7.93;5.70;;;;;;;24.72;54.79;96184.47;5095782;28;20058;-27
2023/10/15 05:04:50;;;;;;;9.38;5.20;;;;;;;24.60;55.00;96185.91;5095975;28;20376;-26
2023/10/15 05:07:16;;;;;;;8.70;5.38;;;;;;;24.40;55.41;96183.63;5095610;28;20020;-26
2023/10/15 05:09:44;;;;;;;8.82;5.30;;;;;;;24.34;55.76;96181.72;5095696;28;20094;-26
2023/10/15 05:12:10;;;;;;;12.07;6.10;;;;;;;24.55;54.79;96181.91;5103562;28;20023;-26
2023/10/15 05:14:36;;;;;;;8.88;5.63;;;;;;;24.49;54.77;96184.00;5095643;28;20031;-28
2023/10/15 05:17:01;;;;;;;7.40;5.43;;;;;;;24.44;55.10;96181.31;5095670;28;20391;-27
2023/10/15 05:19:27;;;;;;;8.27;5.68;;;;;;;24.34;55.43;96178.19;5094383;28;20016;-26
2023/10/15 05:21:53;;;;;;;9.32;5.72;;;;;;;24.54;54.80;96185.22;5095630;28;20036;-27
2023/10/15 05:24:18;;;;;;;7.60;5.38;;;;;;;24.38;55.57;96184.16;5095805;28;20016;-26
2023/10/15 05:26:49;;;;;;;11.90;5.93;;;;;;;24.46;55.44;96184.31;5095578;28;20024;-27
2023/10/15 05:29:15;;;;;;;7.20;5.78;;;;;;;24.37;55.91;96181.91;5095602;28;20027;-26
2023/10/15 05:31:41;;;;;;;7.82;6.40;;;;;;;24.31;56.27;96184.78;5095372;28;20028;-26
2023/10/15 05:34:08;;;;;;;7.97;5.25;;;;;;;24.40;56.08;96180.88;5095288;28;20031;-26
2023/10/15 05:36:36;;;;;;;9.80;6.40;;;;;;;24.25;56.15;96184.06;5095618;28;20062;-27
2023/10/15 05:39:08;;;;;;;8.05;5.60;;;;;;;24.39;56.05;96190.44;5095033;28;20019;-26
2023/10/15 05:41:34;;;;;;;7.75;5.18;;;;;;;24.44;55.76;96187.63;5094382;28;20024;-26
2023/10/15 05:44:00;;;;;;;9.27;5.50;;;;;;;24.31;56.04;96191.06;5098590;28;20022;-26
2023/10/15 05:46:27;;;;;;;8.25;5.82;;;;;;;24.48;55.37;96193.59;5097992;28;20069;-27
2023/10/15 05:48:55;;;;;;;7.10;5.35;;;;;;;24.50;55.60;96204.16;5095502;28;20027;-26
2023/10/15 05:51:21;;;;;;;7.00;5.57;;;;;;;24.36;56.21;96203.34;5094575;28;20048;-27
2023/10/15 05:53:47;;;;;;;7.13;5.53;;;;;;;24.56;55.27;96208.38;5095573;28;20097;-26
2023/10/15 05:56:13;;;;;;;7.80;5.47;;;;;;;24.40;55.89;96205.81;5094781;28;20099;-28
2023/10/15 05:58:39;;;;;;;11.50;5.63;;;;;;;24.55;55.50;96212.41;5094900;28;20077;-26
2023/10/15 06:01:06;;;;;;;8.63;6.10;;;;;;;24.40;55.94;96217.66;5094994;28;20020;-26
2023/10/15 06:03:31;;;;;;;14.57;8.73;;;;;;;24.54;55.49;96219.22;5094401;28;20016;-26
2023/10/15 06:05:57;;;;;;;12.70;8.23;;;;;;;24.34;55.91;96217.00;5094652;28;20032;-26
2023/10/15 06:08:23;;;;;;;12.60;8.02;;;;;;;24.40;55.89;96220.41;5094567;28;20024;-26
2023/10/15 06:10:48;;;;;;;14.80;8.63;;;;;;;24.42;55.98;96217.13;5094428;28;20084;-27
2023/10/15 06:13:14;;;;;;;12.98;7.93;;;;;;;24.42;55.98;96222.66;5096063;28;20069;-26
2023/10/15 06:15:39;;;;;;;15.05;7.65;;;;;;;24.36;55.89;96219.25;5099914;28;20034;-26
2023/10/15 06:18:05;;;;;;;12.35;7.07;;;;;;;24.51;55.53;96220.28;5094877;28;20433;-27
2023/10/15 06:20:30;;;;;;;11.45;6.72;;;;;;;24.42;55.74;96215.09;5094306;28;20024;-26
2023/10/15 06:22:56;;;;;;;9.32;6.18;;;;;;;24.39;55.87;96221.69;5094510;28;20349;-26
2023/10/15 06:25:23;;;;;;;10.43;6.00;;;;;;;24.65;55.41;96221.84;5094365;28;20027;-26
2023/10/15 06:27:49;;;;;;;9.70;5.82;;;;;;;24.47;55.76;96217.06;5094123;28;20043;-27
2023/10/15 06:30:15;;;;;;;10.38;5.80;;;;;;;24.64;55.36;96223.13;5102204;28;20395;-27
2023/10/15 06:32:44;;;;;;;10.73;5.60;;;;;;;24.57;55.75;96223.75;5093981;28;20024;-27
2023/10/15 06:35:10;;;;;;;9.82;5.50;;;;;;;24.54;55.48;96204.63;5094650;28;20038;-26
2023/10/15 06:37:38;;;;;;;15.32;8.35;;;;;;;24.52;55.83;96210.69;5093913;28;20023;-27
2023/10/15 06:40:08;;;;;;;20.85;12.88;;;;;;;24.67;55.47;96207.47;5094019;28;20016;-27
2023/10/15 06:42:34;;;;;;;22.40;14.55;;;;;;;24.61;55.85;96210.31;5094080;28;20115;-27
2023/10/15 06:45:02;;;;;;;17.38;8.70;;;;;;;24.61;55.66;96215.09;5093990;28;20077;-28
2023/10/15 06:47:29;;;;;;;14.32;7.88;;;;;;;24.52;55.88;96212.72;5094157;28;20020;-27
2023/10/15 06:49:55;;;;;;;12.60;6.72;;;;;;;24.59;55.64;96218.41;5108925;28;20085;-27
2023/10/15 06:52:21;;;;;;;9.50;6.15;;;;;;;24.57;55.57;96215.41;5093506;28;20039;-26
2023/10/15 06:54:46;;;;;;;11.88;5.95;;;;;;;24.49;55.76;96211.72;5094678;28;20024;-27
2023/10/15 06:57:16;;;;;;;10.93;5.32;;;;;;;24.64;55.70;96217.56;5093195;28;20103;-26
2023/10/15 06:59:44;;;;;;;10.60;5.72;;;;;;;24.59;55.75;96226.72;5093502;28;20052;-28
2023/10/15 07:02:13;;;;;;;10.57;5.32;;;;;;;24.48;55.98;96210.22;5101614;28;20027;-27
2023/10/15 07:04:39;;;;;;;9.90;5.53;;;;;;;24.37;56.42;96209.63;5093815;28;20023;-26
2023/10/15 07:07:04;;;;;;;7.57;4.60;;;;;;;24.57;55.83;96214.66;5093954;28;20031;-27
2023/10/15 07:09:32;;;;;;;12.60;5.53;;;;;;;24.68;55.29;96222.81;5093469;28;20016;-26
2023/10/15 07:11:59;;;;;;;10.63;5.40;;;;;;;24.61;55.90;96213.06;5093811;28;20028;-26
2023/10/15 07:14:24;;;;;;;9.00;5.15;;;;;;;24.53;56.23;96214.97;5093136;28;20133;-26
2023/10/15 07:16:50;;;;;;;9.05;5.28;;;;;;;24.49;56.39;96211.72;5093600;28;20483;-26
2023/10/15 07:19:16;;;;;;;10.60;5.63;;;;;;;24.47;56.33;96210.78;5094007;28;20051;-26
2023/10/15 07:21:42;;;;;;;6.82;5.20;;;;;;;24.54;55.64;96205.38;5093522;28;20467;-27
2023/10/15 07:24:11;;;;;;;8.20;5.40;;;;;;;24.35;56.64;96212.94;5093611;28;20031;-26
2023/10/15 07:26:39;;;;;;;9.05;4.75;;;;;;;24.42;56.38;96215.09;5093593;28;20467;-27
2023/10/15 07:29:05;;;;;;;6.38;4.93;;;;;;;24.48;56.46;96210.22;5093236;28;20382;-26
2023/10/15 07:31:30;;;;;;;10.57;5.38;;;;;;;24.60;55.64;96213.63;5095030;28;20028;-27
2023/10/15 07:33:56;;;;;;;12.00;5.53;;;;;;;24.54;55.99;96218.47;5098987;28;20028;-26
2023/10/15 07:36:22;;;;;;;7.03;5.45;;;;;;;24.64;55.78;96217.56;5093665;28;20028;-27
2023/10/15 07:38:47;;;;;;;7.22;5.30;;;;;;;24.58;56.36;96214.16;5093323;28;20016;-27
2023/10/15 07:41:13;;;;;;;8.50;5.43;;;;;;;24.55;56.28;96225.53;5093371;28;20069;-27
2023/10/15 07:43:38;;;;;;;11.52;5.30;;;;;;;24.44;57.13;96220.13;5093214;28;20042;-27
2023/10/15 07:46:04;;;;;;;8.38;5.63;;;;;;;24.56;56.86;96222.22;5093404;28;20027;-26
2023/10/15 07:48:29;;;;;;;6.88;5.30;;;;;;;24.56;56.83;96222.22;5093490;28;20044;-26
2023/10/15 07:50:55;;;;;;;9.00;5.93;;;;;;;24.51;57.35;96211.97;5093525;28;20102;-27
2023/10/15 07:53:21;;;;;;;9.77;5.63;;;;;;;24.44;57.25;96211.81;5093299;28;20433;-27
2023/10/15 07:55:46;;;;;;;14.20;6.70;;;;;;;24.51;57.18;96214.72;5093153;28;20022;-26
2023/10/15 07:58:12;;;;;;;10.95;6.95;;;;;;;24.36;57.62;96219.97;5093333;28;20471;-27
2023/10/15 08:00:37;;;;;;;8.05;6.45;;;;;;;24.30;57.64;96225.59;5093332;28;20055;-26
2023/10/15 08:03:07;;;;;;;10.35;6.72;;;;;;;24.46;57.50;96212.03;5093177;28;20012;-27
2023/10/15 08:05:33;;;;;;;9.52;5.95;;;;;;;24.38;57.49;96205.59;5093331;28;20020;-27
2023/10/15 08:08:00;;;;;;;10.15;5.68;;;;;;;24.41;57.71;96210.09;5095676;28;20085;-28
2023/10/15 08:10:31;;;;;;;12.10;6.40;;;;;;;24.49;57.42;96206.19;5096709;28;20031;-26
2023/10/15 08:12:58;;;;;;;10.15;6.40;;;;;;;24.45;57.75;96207.78;5096758;28;20464;-27
2023/10/15 08:15:24;;;;;;;13.75;6.72;;;;;;;24.50;57.58;96204.91;5096976;28;20376;-26
2023/10/15 08:17:50;;;;;;;8.70;6.18;;;;;;;24.41;58.01;96205.28;5097244;28;20024;-26
2023/10/15 08:20:16;;;;;;;12.88;6.93;;;;;;;24.62;57.67;96203.47;5096934;28;20016;-26
2023/10/15 08:22:44;;;;;;;13.45;6.47;;;;;;;24.82;57.04;96193.13;5096818;28;20023;-26
2023/10/15 08:25:13;;;;;;;11.73;6.80;;;;;;;24.16;58.92;96199.03;5096500;28;20016;-27
2023/10/15 08:27:41;;;;;;;15.35;6.93;;;;;;;24.46;57.69;96210.03;5096539;28;20031;-26
2023/10/15 08:30:08;;;;;;;13.48;7.80;;;;;;;24.47;57.78;96203.22;5095251;28;20360;-26
2023/10/15 08:32:33;;;;;;;10.73;7.28;;;;;;;24.61;57.39;96193.66;5096304;28;20109;-26
2023/10/15 08:34:59;;;;;;;11.40;6.60;;;;;;;24.52;57.74;96196.06;5097345;28;20042;-27
2023/10/15 08:37:24;;;;;;;11.63;7.15;;;;;;;24.53;57.72;96189.25;5102088;28;20024;-27
2023/10/15 08:39:49;;;;;;;16.77;6.68;;;;;;;24.58;57.22;96188.44;5096272;28;20020;-27
2023/10/15 08:42:24;;;;;;;14.10;7.20;;;;;;;24.72;56.70;96189.25;5096465;28;20509;-27
2023/10/15 08:44:56;;;;;;;12.77;7.05;;;;;;;24.69;57.01;96191.81;5103733;28;20027;-26
2023/10/15 08:47:25;;;;;;;11.68;6.40;;;;;;;24.82;56.19;96187.59;5096431;28;20455;-27
2023/10/15 08:49:52;;;;;;;11.15;6.45;;;;;;;24.78;56.64;96193.44;5096202;28;20111;-26
2023/10/15 08:52:19;;;;;;;11.63;6.18;;;;;;;24.66;57.08;96181.75;5095908;28;20480;-27
2023/10/15 08:54:46;;;;;;;14.32;6.43;;;;;;;24.78;56.26;96182.34;5096436;28;20028;-26
2023/10/15 08:57:13;;;;;;;10.52;5.80;;;;;;;24.80;56.45;96185.34;5096118;28;20483;-27
2023/10/15 08:59:41;;;;;;;11.23;6.22;;;;;;;24.83;56.33;96178.75;5096148;28;20023;-26
2023/10/15 09:02:08;;;;;;;9.95;5.90;;;;;;;24.87;56.48;96178.41;5096343;28;20020;-27
2023/10/15 09:04:35;;;;;;;11.63;6.30;;;;;;;25.08;55.21;96179.41;5095983;28;20012;-26
2023/10/15 09:07:01;;;;;;;15.40;6.10;;;;;;;24.86;56.32;96174.16;5096080;28;20470;-26
2023/10/15 09:09:32;;;;;;;13.27;5.70;;;;;;;25.27;54.48;96171.75;5096334;28;20395;-26
2023/10/15 09:11:58;;;;;;;12.95;6.25;;;;;;;25.10;55.47;96171.25;5095839;28;20034;-26
2023/10/15 09:14:42;;;;;;;14.65;6.50;;;;;;;25.26;54.84;96170.25;5095401;28;20016;-27
2023/10/15 09:17:10;;;;;;;13.02;5.68;;;;;;;25.16;55.04;96168.41;5095580;28;20043;-27
2023/10/15 09:19:39;;;;;;;11.98;5.85;;;;;;;25.17;55.13;96156.03;5094729;28;20020;-26
2023/10/15 09:22:06;;;;;;;12.55;5.80;;;;;;;25.14;55.25;96163.38;5095410;28;20026;-26
2023/10/15 09:24:32;;;;;;;9.93;5.68;;;;;;;25.09;55.50;96153.16;5095622;28;20097;-26
2023/10/15 09:26:58;;;;;;;9.27;6.00;;;;;;;25.32;54.78;96161.84;5095836;28;20020;-27
2023/10/15 09:29:23;;;;;;;9.38;5.07;;;;;;;25.24;54.50;96155.41;5095441;28;20459;-27
2023/10/15 09:31:56;;;;;;;11.02;6.22;;;;;;;25.33;53.90;96164.09;5095062;28;20028;-27
2023/10/15 09:34:22;;;;;;;10.45;5.53;;;;;;;25.30;53.97;96159.59;5095993;28;20028;-26
2023/10/15 09:36:47;;;;;;;12.63;6.05;;;;;;;24.86;55.15;96151.97;5095220;28;20034;-26
2023/10/15 09:39:14;;;;;;;12.88;5.30;;;;;;;24.96;54.77;96153.84;5095408;28;20370;-26
2023/10/15 09:41:41;;;;;;;12.18;5.18;;;;;;;25.26;53.44;96156.38;5096720;28;20015;-28
2023/10/15 09:44:14;;;;;;;10.45;5.50;;;;;;;25.30;53.30;96150.50;5099281;28;20452;-27
2023/10/15 09:46:40;;;;;;;;;;;;;;;25.46;52.75;96148.72;5095778;28;20398;-26
2023/10/15 09:49:07;;;;;;;12.73;5.40;;;;;;;25.40;52.67;96135.69;5094834;28;19961;-27
2023/10/15 09:51:33;;;;;;;13.93;6.00;;;;;;;25.17;53.18;96142.16;5094798;28;20083;-26
2023/10/15 09:54:00;;;;;;;14.82;6.07;;;;;;;25.31;52.99;96146.47;5094748;28;20459;-26
2023/10/15 09:56:28;;;;;;;12.18;5.97;;;;;;;25.23;52.89;96143.53;5101959;28;20103;-26
2023/10/15 09:58:54;;;;;;;10.55;5.22;;;;;;;25.26;52.69;96142.50;5102052;28;20031;-26
2023/10/15 10:01:28;;;;;;;13.27;5.13;;;;;;;25.25;52.47;96135.44;5094515;28;20019;-27
2023/10/15 10:03:59;;;;;;;8.90;5.88;;;;;;;25.50;51.83;96138.03;5095239;28;20129;-26
2023/10/15 10:06:49;;;;;;;12.77;5.50;;;;;;;25.57;51.78;96131.84;5094557;28;20145;-26
2023/10/15 10:09:54;;;;;;;8.75;4.80;;;;;;;25.50;51.62;96132.47;5101851;28;20103;-26
2023/10/15 10:12:58;;;;;;;14.27;5.43;;;;;;;25.54;51.27;96130.13;5109965;28;20403;-26
2023/10/15 10:15:41;;;;;;;9.32;5.82;;;;;;;25.56;51.67;96135.91;5102264;28;20020;-26
2023/10/15 10:18:07;;;;;;;11.75;5.40;;;;;;;25.64;51.74;96128.47;5094667;28;20031;-26
2023/10/15 10:20:36;;;;;;;9.38;5.88;;;;;;;25.63;51.44;96119.38;5094360;28;20028;-26
2023/10/15 10:23:05;;;;;;;11.70;5.90;;;;;;;25.45;51.86;96116.69;5094487;28;20103;-26
2023/10/15 10:25:36;;;;;;;9.43;5.85;;;;;;;25.35;52.04;96116.34;5101819;28;20043;-26
2023/10/15 10:28:16;;;;;;;8.77;5.90;;;;;;;25.54;51.56;96110.69;5094688;28;20028;-27
2023/10/15 10:31:00;;;;;;;11.27;5.88;;;;;;;25.51;51.91;96106.22;5093486;28;20403;-26
2023/10/15 10:33:49;;;;;;;11.60;6.07;;;;;;;25.48;51.39;96101.72;5094610;28;20024;-26
2023/10/15 10:36:25;;;;;;;14.10;6.85;;;;;;;25.47;51.32;96100.97;5089186;28;20115;-26
2023/10/15 10:39:13;;;;;;;10.57;7.10;;;;;;;25.61;51.23;96104.53;5094449;28;20463;-26
2023/10/15 10:41:40;;;;;;;10.65;6.65;;;;;;;25.53;50.94;96098.84;5094075;28;20016;-27
2023/10/15 10:44:29;;;;;;;11.18;6.70;;;;;;;25.57;51.17;96104.09;5094158;28;20083;-26
2023/10/15 10:46:59;;;;;;;13.15;6.22;;;;;;;25.54;50.83;96105.91;5101776;28;20024;-26
2023/10/15 10:49:39;;;;;;;12.38;5.95;;;;;;;25.56;50.99;96097.78;5094011;28;20073;-26
2023/10/15 10:52:17;;;;;;;10.90;6.05;;;;;;;25.46;51.62;96098.75;5093802;28;20536;-27
2023/10/15 10:54:43;;;;;;;9.57;5.38;;;;;;;25.53;51.32;96084.22;5093518;28;20055;-26
2023/10/15 10:57:09;;;;;;;13.00;6.95;;;;;;;25.50;51.59;96099.91;5093695;28;20072;-27
2023/10/15 10:59:41;;;;;;;12.80;6.45;;;;;;;25.57;51.18;96098.53;5093971;28;20111;-26
2023/10/15 11:02:11;;;;;;;10.85;5.60;;;;;;;25.53;51.26;96075.88;5094648;28;20526;-27
2023/10/15 11:04:39;;;;;;;11.02;5.30;;;;;;;25.63;51.25;96068.63;5094003;28;20592;-27
2023/10/15 11:07:04;;;;;;;11.40;5.60;;;;;;;25.56;51.08;96058.16;5093652;28;20161;-27
2023/10/15 11:09:30;;;;;;;11.60;4.88;;;;;;;25.52;51.73;96057.72;5094001;28;20502;-28
2023/10/15 11:11:57;;;;;;;11.98;5.72;;;;;;;25.55;51.89;96065.00;5093778;28;20020;-26
2023/10/15 11:14:24;;;;;;;13.45;5.72;;;;;;;25.54;51.95;96050.38;5093540;28;20020;-26
2023/10/15 11:16:54;;;;;;;13.60;5.57;;;;;;;25.50;51.69;96049.19;5100237;28;20072;-25
2023/10/15 11:19:30;;;;;;;14.50;5.15;;;;;;;25.72;50.95;96043.94;5093948;28;20074;-26
2023/10/15 11:21:57;;;;;;;13.40;5.53;;;;;;;25.67;51.06;96041.31;5093679;28;20111;-26
2023/10/15 11:24:24;;;;;;;12.43;5.25;;;;;;;25.70;50.89;96040.25;5093364;28;20455;-26
2023/10/15 11:26:50;;;;;;;15.82;6.07;;;;;;;25.66;51.26;96043.34;5093509;28;20094;-26
2023/10/15 11:29:18;;;;;;;10.10;4.97;;;;;;;25.54;51.53;96039.25;5093630;28;20024;-27
2023/10/15 11:31:46;;;;;;;10.55;4.35;;;;;;;25.57;51.87;96031.91;5093552;28;20425;-26
2023/10/15 11:34:14;;;;;;;11.75;5.22;;;;;;;25.71;51.40;96025.81;5093577;28;20024;-27
2023/10/15 11:36:43;;;;;;;18.50;5.85;;;;;;;25.72;51.26;96037.66;5094107;28;20077;-26
2023/10/15 11:39:17;;;;;;;14.60;4.50;;;;;;;25.74;51.17;96026.75;5093654;28;20059;-28
2023/10/15 11:41:49;;;;;;;15.02;4.72;;;;;;;25.70;51.42;96023.56;5094398;28;20023;-27
2023/10/15 11:44:16;;;;;;;16.42;5.22;;;;;;;25.61;51.77;96027.53;5097774;28;20023;-26